sensor_id;sensor_type;location;lat;lon;timestamp;temperature;humidity
53675;DHT22;39574;50.534;8.500;2023-01-19T00:01:19;-1.5;99.9
53675;DHT22;39574;50.534;8.500;2023-01-19T00:06:32;-1.6;99.9
53675;DHT22;39574;50.534;8.500;2023-01-19T00:11:34;-1.8;99.9
53675;DHT22;39574;50.534;8.500;2023-01-19T00:21:01;-1.9;99.9
53675;DHT22;39574;50.534;8.500;2023-01-19T00:26:12;-1.9;99.9
53675;DHT22;39574;50.534;8.500;2023-01-19T00:31:16;-1.9;99.9
53675;DHT22;39574;50.534;8.500;2023-01-19T00:36:25;-1.9;99.9
53675;DHT22;39574;50.534;8.500;2023-01-19T00:46:06;-1.6;99.9
53675;DHT22;39574;50.534;8.500;2023-01-19T00:51:09;-1.3;99.9
53675;DHT22;39574;50.534;8.500;2023-01-19T00:56:21;-1.2;99.9
53675;DHT22;39574;50.534;8.500;2023-01-19T01:05:30;-1.1;99.9
53675;DHT22;39574;50.534;8.500;2023-01-19T01:10:38;-1.0;99.9
53675;DHT22;39574;50.534;8.500;2023-01-19T01:15:48;-1.0;99.9
53675;DHT22;39574;50.534;8.500;2023-01-19T01:20:59;-1.0;99.9
53675;DHT22;39574;50.534;8.500;2023-01-19T01:26:09;-1.0;99.9
53675;DHT22;39574;50.534;8.500;2023-01-19T01:35:39;-1.1;99.9
53675;DHT22;39574;50.534;8.500;2023-01-19T01:40:50;-1.1;99.9
53675;DHT22;39574;50.534;8.500;2023-01-19T01:45:53;-1.0;99.9
53675;DHT22;39574;50.534;8.500;2023-01-19T01:51:02;-0.8;99.9
53675;DHT22;39574;50.534;8.500;2023-01-19T01:56:05;-0.7;99.9
53675;DHT22;39574;50.534;8.500;2023-01-19T02:01:05;-0.6;99.9
53675;DHT22;39574;50.534;8.500;2023-01-19T02:10:26;-0.8;99.9
53675;DHT22;39574;50.534;8.500;2023-01-19T02:15:28;-1.0;99.9
53675;DHT22;39574;50.534;8.500;2023-01-19T02:20:44;-1.2;99.9
53675;DHT22;39574;50.534;8.500;2023-01-19T02:25:50;-1.3;99.9
53675;DHT22;39574;50.534;8.500;2023-01-19T02:35:20;-1.3;99.9
53675;DHT22;39574;50.534;8.500;2023-01-19T02:40:30;-1.2;99.9
53675;DHT22;39574;50.534;8.500;2023-01-19T02:45:44;-1.2;99.9
53675;DHT22;39574;50.534;8.500;2023-01-19T02:50:48;-1.1;99.9
53675;DHT22;39574;50.534;8.500;2023-01-19T03:00:06;-1.0;99.9
53675;DHT22;39574;50.534;8.500;2023-01-19T03:05:25;-0.9;99.9
53675;DHT22;39574;50.534;8.500;2023-01-19T03:10:27;-0.8;99.9
53675;DHT22;39574;50.534;8.500;2023-01-19T03:15:39;-0.6;99.9
53675;DHT22;39574;50.534;8.500;2023-01-19T03:25:06;-0.6;99.9
53675;DHT22;39574;50.534;8.500;2023-01-19T03:30:19;-0.5;99.9
53675;DHT22;39574;50.534;8.500;2023-01-19T03:35:20;-0.4;99.9
53675;DHT22;39574;50.534;8.500;2023-01-19T03:40:28;-0.4;99.9
53675;DHT22;39574;50.534;8.500;2023-01-19T03:45:33;-0.4;99.9
53675;DHT22;39574;50.534;8.500;2023-01-19T03:54:57;-0.5;99.9
53675;DHT22;39574;50.534;8.500;2023-01-19T03:59:58;-0.5;99.9
53675;DHT22;39574;50.534;8.500;2023-01-19T04:05:09;-0.6;99.9
53675;DHT22;39574;50.534;8.500;2023-01-19T04:10:24;-0.7;99.9
53675;DHT22;39574;50.534;8.500;2023-01-19T04:19:50;-0.7;99.9
53675;DHT22;39574;50.534;8.500;2023-01-19T04:24:59;-0.8;99.9
53675;DHT22;39574;50.534;8.500;2023-01-19T04:30:13;-0.9;99.9
53675;DHT22;39574;50.534;8.500;2023-01-19T04:35:13;-0.9;99.9
53675;DHT22;39574;50.534;8.500;2023-01-19T04:40:14;-0.9;99.9
53675;DHT22;39574;50.534;8.500;2023-01-19T04:45:15;-0.9;99.9
53675;DHT22;39574;50.534;8.500;2023-01-19T04:54:49;-0.9;99.9
53675;DHT22;39574;50.534;8.500;2023-01-19T04:59:49;-0.9;99.9
53675;DHT22;39574;50.534;8.500;2023-01-19T05:05:02;-1.1;99.9
53675;DHT22;39574;50.534;8.500;2023-01-19T05:10:05;-1.1;99.9
53675;DHT22;39574;50.534;8.500;2023-01-19T05:19:43;-1.1;99.9
53675;DHT22;39574;50.534;8.500;2023-01-19T05:24:47;-1.0;99.9
53675;DHT22;39574;50.534;8.500;2023-01-19T05:29:57;-0.8;99.9
53675;DHT22;39574;50.534;8.500;2023-01-19T05:34:59;-0.7;99.9
53675;DHT22;39574;50.534;8.500;2023-01-19T05:44:24;-0.5;99.9
53675;DHT22;39574;50.534;8.500;2023-01-19T05:49:25;-0.5;99.9
53675;DHT22;39574;50.534;8.500;2023-01-19T05:54:38;-0.4;99.9
53675;DHT22;39574;50.534;8.500;2023-01-19T05:59:51;-0.3;99.9
53675;DHT22;39574;50.534;8.500;2023-01-19T06:09:29;-0.1;99.9
53675;DHT22;39574;50.534;8.500;2023-01-19T06:14:43;0.0;99.9
53675;DHT22;39574;50.534;8.500;2023-01-19T06:24:13;0.1;99.9
53675;DHT22;39574;50.534;8.500;2023-01-19T06:29:23;0.2;99.9
53675;DHT22;39574;50.534;8.500;2023-01-19T06:34:25;0.3;99.9
53675;DHT22;39574;50.534;8.500;2023-01-19T06:39:35;0.3;99.9
53675;DHT22;39574;50.534;8.500;2023-01-19T06:49:06;0.4;99.9
53675;DHT22;39574;50.534;8.500;2023-01-19T06:54:07;0.5;99.9
53675;DHT22;39574;50.534;8.500;2023-01-19T06:59:15;0.5;99.9
53675;DHT22;39574;50.534;8.500;2023-01-19T07:04:19;0.6;99.9
53675;DHT22;39574;50.534;8.500;2023-01-19T07:09:30;0.6;99.9
53675;DHT22;39574;50.534;8.500;2023-01-19T07:18:54;0.6;99.9
53675;DHT22;39574;50.534;8.500;2023-01-19T07:24:09;0.7;99.9
53675;DHT22;39574;50.534;8.500;2023-01-19T07:29:10;0.7;99.9
53675;DHT22;39574;50.534;8.500;2023-01-19T07:34:22;0.8;99.9
53675;DHT22;39574;50.534;8.500;2023-01-19T07:43:53;0.8;99.9
53675;DHT22;39574;50.534;8.500;2023-01-19T07:48:54;0.8;99.9
53675;DHT22;39574;50.534;8.500;2023-01-19T07:53:57;0.9;99.9
53675;DHT22;39574;50.534;8.500;2023-01-19T07:58:58;1.0;99.9
53675;DHT22;39574;50.534;8.500;2023-01-19T08:04:01;1.0;99.9
53675;DHT22;39574;50.534;8.500;2023-01-19T08:09:16;1.1;99.9
53675;DHT22;39574;50.534;8.500;2023-01-19T08:18:25;1.2;99.9
53675;DHT22;39574;50.534;8.500;2023-01-19T08:23:31;1.3;99.9
53675;DHT22;39574;50.534;8.500;2023-01-19T08:28:36;1.4;99.9
53675;DHT22;39574;50.534;8.500;2023-01-19T08:33:48;1.4;99.9
53675;DHT22;39574;50.534;8.500;2023-01-19T08:38:50;1.4;99.9
53675;DHT22;39574;50.534;8.500;2023-01-19T08:44:03;1.3;99.9
53675;DHT22;39574;50.534;8.500;2023-01-19T08:53:31;1.3;99.9
53675;DHT22;39574;50.534;8.500;2023-01-19T08:58:32;1.3;99.9
53675;DHT22;39574;50.534;8.500;2023-01-19T09:03:43;1.2;99.9
53675;DHT22;39574;50.534;8.500;2023-01-19T09:08:44;1.2;99.9
53675;DHT22;39574;50.534;8.500;2023-01-19T09:13:56;1.1;99.9
53675;DHT22;39574;50.534;8.500;2023-01-19T09:23:29;1.1;99.9
53675;DHT22;39574;50.534;8.500;2023-01-19T09:28:32;1.1;99.9
53675;DHT22;39574;50.534;8.500;2023-01-19T09:33:32;1.0;99.9
53675;DHT22;39574;50.534;8.500;2023-01-19T09:38:45;1.0;99.9
53675;DHT22;39574;50.534;8.500;2023-01-19T09:48:29;1.1;99.9
53675;DHT22;39574;50.534;8.500;2023-01-19T09:53:33;1.1;99.9
53675;DHT22;39574;50.534;8.500;2023-01-19T09:58:43;1.1;99.9
53675;DHT22;39574;50.534;8.500;2023-01-19T10:07:57;1.1;99.9
53675;DHT22;39574;50.534;8.500;2023-01-19T10:12:56;1.2;99.9
53675;DHT22;39574;50.534;8.500;2023-01-19T10:18:09;1.2;99.9
53675;DHT22;39574;50.534;8.500;2023-01-19T10:23:20;1.3;99.9
53675;DHT22;39574;50.534;8.500;2023-01-19T10:28:32;1.3;99.9
53675;DHT22;39574;50.534;8.500;2023-01-19T10:33:35;1.3;99.9
53675;DHT22;39574;50.534;8.500;2023-01-19T10:43:41;1.4;99.9
53675;DHT22;39574;50.534;8.500;2023-01-19T10:48:11;1.5;99.9
53675;DHT22;39574;50.534;8.500;2023-01-19T10:53:22;1.5;99.9
53675;DHT22;39574;50.534;8.500;2023-01-19T11:02:54;1.5;99.9
53675;DHT22;39574;50.534;8.500;2023-01-19T11:08:06;1.6;99.9
53675;DHT22;39574;50.534;8.500;2023-01-19T11:13:08;1.7;99.9
53675;DHT22;39574;50.534;8.500;2023-01-19T11:18:21;1.8;99.9
53675;DHT22;39574;50.534;8.500;2023-01-19T11:28:13;1.8;99.9
53675;DHT22;39574;50.534;8.500;2023-01-19T11:33:22;1.8;99.9
53675;DHT22;39574;50.534;8.500;2023-01-19T11:42:38;1.7;99.9
53675;DHT22;39574;50.534;8.500;2023-01-19T11:47:40;1.7;99.9
53675;DHT22;39574;50.534;8.500;2023-01-19T11:52:54;1.7;99.9
53675;DHT22;39574;50.534;8.500;2023-01-19T11:57:55;1.7;99.9
53675;DHT22;39574;50.534;8.500;2023-01-19T12:03:02;1.8;99.9
53675;DHT22;39574;50.534;8.500;2023-01-19T12:08:08;1.7;99.9
53675;DHT22;39574;50.534;8.500;2023-01-19T12:13:20;1.8;99.9
53675;DHT22;39574;50.534;8.500;2023-01-19T12:22:44;1.9;99.9
53675;DHT22;39574;50.534;8.500;2023-01-19T12:27:43;1.9;99.9
53675;DHT22;39574;50.534;8.500;2023-01-19T12:33:18;2.0;99.9
53675;DHT22;39574;50.534;8.500;2023-01-19T12:37:58;2.0;99.9
53675;DHT22;39574;50.534;8.500;2023-01-19T12:47:35;2.0;99.9
53675;DHT22;39574;50.534;8.500;2023-01-19T12:52:38;2.0;99.9
53675;DHT22;39574;50.534;8.500;2023-01-19T12:57:47;2.0;99.9
53675;DHT22;39574;50.534;8.500;2023-01-19T13:02:50;2.0;99.9
53675;DHT22;39574;50.534;8.500;2023-01-19T13:12:18;2.0;99.9
53675;DHT22;39574;50.534;8.500;2023-01-19T13:17:30;2.2;99.9
53675;DHT22;39574;50.534;8.500;2023-01-19T13:22:50;2.3;99.9
53675;DHT22;39574;50.534;8.500;2023-01-19T13:27:42;2.5;99.9
53675;DHT22;39574;50.534;8.500;2023-01-19T13:32:43;2.8;99.9
53675;DHT22;39574;50.534;8.500;2023-01-19T13:37:44;3.0;99.9
53675;DHT22;39574;50.534;8.500;2023-01-19T13:47:10;3.1;99.9
53675;DHT22;39574;50.534;8.500;2023-01-19T13:52:18;3.1;99.9
53675;DHT22;39574;50.534;8.500;2023-01-19T13:57:22;3.1;99.9
53675;DHT22;39574;50.534;8.500;2023-01-19T14:02:33;2.9;99.9
53675;DHT22;39574;50.534;8.500;2023-01-19T14:12:03;2.9;99.9
53675;DHT22;39574;50.534;8.500;2023-01-19T14:17:01;2.8;99.9
53675;DHT22;39574;50.534;8.500;2023-01-19T14:22:01;2.6;99.9
53675;DHT22;39574;50.534;8.500;2023-01-19T14:27:15;2.5;99.9
53675;DHT22;39574;50.534;8.500;2023-01-19T14:32:12;2.4;99.9
53675;DHT22;39574;50.534;8.500;2023-01-19T14:42:25;2.4;99.9
53675;DHT22;39574;50.534;8.500;2023-01-19T14:51:45;2.4;99.9
53675;DHT22;39574;50.534;8.500;2023-01-19T14:57:16;2.4;99.9
53675;DHT22;39574;50.534;8.500;2023-01-19T15:06:25;2.4;99.9
53675;DHT22;39574;50.534;8.500;2023-01-19T15:11:55;2.4;99.9
53675;DHT22;39574;50.534;8.500;2023-01-19T15:16:59;2.3;99.9
53675;DHT22;39574;50.534;8.500;2023-01-19T15:22:13;2.4;99.9
53675;DHT22;39574;50.534;8.500;2023-01-19T15:31:39;2.3;99.9
53675;DHT22;39574;50.534;8.500;2023-01-19T15:36:54;2.3;99.9
53675;DHT22;39574;50.534;8.500;2023-01-19T15:42:02;2.2;99.9
53675;DHT22;39574;50.534;8.500;2023-01-19T15:47:07;2.2;99.9
53675;DHT22;39574;50.534;8.500;2023-01-19T15:56:42;2.2;99.9
53675;DHT22;39574;50.534;8.500;2023-01-19T16:01:43;2.2;99.9
53675;DHT22;39574;50.534;8.500;2023-01-19T16:06:44;2.2;99.9
53675;DHT22;39574;50.534;8.500;2023-01-19T16:12:02;2.1;99.9
53675;DHT22;39574;50.534;8.500;2023-01-19T16:21:21;2.1;99.9
53675;DHT22;39574;50.534;8.500;2023-01-19T16:26:35;2.1;99.9
53675;DHT22;39574;50.534;8.500;2023-01-19T16:31:38;2.2;99.9
53675;DHT22;39574;50.534;8.500;2023-01-19T16:36:46;2.2;99.9
53675;DHT22;39574;50.534;8.500;2023-01-19T16:41:48;2.2;99.9
53675;DHT22;39574;50.534;8.500;2023-01-19T16:51:15;2.3;99.9
53675;DHT22;39574;50.534;8.500;2023-01-19T16:56:27;2.3;99.9
53675;DHT22;39574;50.534;8.500;2023-01-19T17:01:40;2.2;99.9
53675;DHT22;39574;50.534;8.500;2023-01-19T17:06:44;2.2;99.9
53675;DHT22;39574;50.534;8.500;2023-01-19T17:16:09;2.2;99.9
53675;DHT22;39574;50.534;8.500;2023-01-19T17:21:19;2.3;99.9
53675;DHT22;39574;50.534;8.500;2023-01-19T17:26:21;2.4;99.9
53675;DHT22;39574;50.534;8.500;2023-01-19T17:31:31;2.4;99.9
53675;DHT22;39574;50.534;8.500;2023-01-19T17:36:34;2.5;99.9
53675;DHT22;39574;50.534;8.500;2023-01-19T17:45:58;2.5;99.9
53675;DHT22;39574;50.534;8.500;2023-01-19T17:51:00;2.4;99.9
53675;DHT22;39574;50.534;8.500;2023-01-19T17:56:14;2.4;99.9
53675;DHT22;39574;50.534;8.500;2023-01-19T18:01:28;2.4;99.9
53675;DHT22;39574;50.534;8.500;2023-01-19T18:11:05;2.5;99.9
53675;DHT22;39574;50.534;8.500;2023-01-19T18:16:20;2.5;99.9
53675;DHT22;39574;50.534;8.500;2023-01-19T18:26:02;2.5;99.9
53675;DHT22;39574;50.534;8.500;2023-01-19T18:31:03;2.4;99.9
53675;DHT22;39574;50.534;8.500;2023-01-19T18:36:13;2.3;99.9
53675;DHT22;39574;50.534;8.500;2023-01-19T18:41:14;2.2;99.9
53675;DHT22;39574;50.534;8.500;2023-01-19T18:46:14;2.1;99.9
53675;DHT22;39574;50.534;8.500;2023-01-19T18:55:50;2.1;99.9
53675;DHT22;39574;50.534;8.500;2023-01-19T19:00:52;2.0;99.9
53675;DHT22;39574;50.534;8.500;2023-01-19T19:06:05;2.0;99.9
53675;DHT22;39574;50.534;8.500;2023-01-19T19:11:09;1.9;99.9
53675;DHT22;39574;50.534;8.500;2023-01-19T19:20:56;1.8;99.9
53675;DHT22;39574;50.534;8.500;2023-01-19T19:26:00;1.8;99.9
53675;DHT22;39574;50.534;8.500;2023-01-19T19:31:03;1.7;99.9
53675;DHT22;39574;50.534;8.500;2023-01-19T19:40:42;1.7;99.9
53675;DHT22;39574;50.534;8.500;2023-01-19T19:45:55;1.6;99.9
53675;DHT22;39574;50.534;8.500;2023-01-19T19:51:05;1.6;99.9
53675;DHT22;39574;50.534;8.500;2023-01-19T20:05:02;1.7;99.9
53675;DHT22;39574;50.534;8.500;2023-01-19T20:10:11;1.8;99.9
53675;DHT22;39574;50.534;8.500;2023-01-19T20:15:24;1.6;99.9
53675;DHT22;39574;50.534;8.500;2023-01-19T20:20:35;1.5;99.9
53675;DHT22;39574;50.534;8.500;2023-01-19T20:25:47;1.5;99.9
53675;DHT22;39574;50.534;8.500;2023-01-19T20:35:12;1.5;99.9
53675;DHT22;39574;50.534;8.500;2023-01-19T20:40:13;1.5;99.9
53675;DHT22;39574;50.534;8.500;2023-01-19T20:45:24;1.5;99.9
53675;DHT22;39574;50.534;8.500;2023-01-19T20:50:45;1.4;99.9
53675;DHT22;39574;50.534;8.500;2023-01-19T21:00:06;1.5;99.9
53675;DHT22;39574;50.534;8.500;2023-01-19T21:05:18;1.5;99.9
53675;DHT22;39574;50.534;8.500;2023-01-19T21:10:20;1.6;99.9
53675;DHT22;39574;50.534;8.500;2023-01-19T21:15:32;1.6;99.9
53675;DHT22;39574;50.534;8.500;2023-01-19T21:24:45;1.5;99.9
53675;DHT22;39574;50.534;8.500;2023-01-19T21:30:09;1.4;99.9
53675;DHT22;39574;50.534;8.500;2023-01-19T21:35:12;1.3;99.9
53675;DHT22;39574;50.534;8.500;2023-01-19T21:40:23;1.1;99.9
53675;DHT22;39574;50.534;8.500;2023-01-19T21:49:49;1.1;99.9
53675;DHT22;39574;50.534;8.500;2023-01-19T21:55:02;1.1;99.9
53675;DHT22;39574;50.534;8.500;2023-01-19T22:00:04;1.2;99.9
53675;DHT22;39574;50.534;8.500;2023-01-19T22:05:04;1.2;99.9
53675;DHT22;39574;50.534;8.500;2023-01-19T22:10:16;1.1;99.9
53675;DHT22;39574;50.534;8.500;2023-01-19T22:24:36;0.8;99.9
53675;DHT22;39574;50.534;8.500;2023-01-19T22:29:41;0.4;99.9
53675;DHT22;39574;50.534;8.500;2023-01-19T22:34:51;0.1;99.9
53675;DHT22;39574;50.534;8.500;2023-01-19T22:39:52;-0.2;99.9
53675;DHT22;39574;50.534;8.500;2023-01-19T22:45:07;-0.1;99.9
53675;DHT22;39574;50.534;8.500;2023-01-19T22:54:44;0.0;99.9
53675;DHT22;39574;50.534;8.500;2023-01-19T22:59:46;0.1;99.9
53675;DHT22;39574;50.534;8.500;2023-01-19T23:05:01;0.1;99.9
53675;DHT22;39574;50.534;8.500;2023-01-19T23:14:26;-0.1;99.9
53675;DHT22;39574;50.534;8.500;2023-01-19T23:19:27;-0.3;99.9
53675;DHT22;39574;50.534;8.500;2023-01-19T23:24:37;-0.4;99.9
53675;DHT22;39574;50.534;8.500;2023-01-19T23:29:51;-0.4;99.9
53675;DHT22;39574;50.534;8.500;2023-01-19T23:34:52;-0.3;99.9
53675;DHT22;39574;50.534;8.500;2023-01-19T23:44:16;-0.1;99.9
53675;DHT22;39574;50.534;8.500;2023-01-19T23:49:16;-0.1;99.9
53675;DHT22;39574;50.534;8.500;2023-01-19T23:54:26;-0.1;99.9
53675;DHT22;39574;50.534;8.500;2023-01-19T23:59:27;-0.1;99.9
